SWR125 EBCI-EDDS
Flight info
| Callsign | SWR125 |
|---|---|
| Flight time | 0h 58m |
| Altitude | 23000 |
| Route | RITAX M624 DIK M150 KRH T128 BADSO |
| Aircraft | A343/H-V/N |
Departure
| Time | 2026-05-07 13:33 |
|---|---|
| Airport | Brussels South Charleroi Airport (EBCI) |
Arrival
| Time | 2026-05-07 14:31 |
|---|---|
| Airport | Stuttgart Airport (EDDS) |
| Time | Latitude | Longitude | Altitude | Speed | Heading |
|---|---|---|---|---|---|
| 2026-05-07 12:48 | 50.46762 | 4.46724 | 590 ft | 0 kts | 20° |
| 2026-05-07 12:55 | 50.46761 | 4.46724 | 590 ft | 0 kts | 20° |
| 2026-05-07 13:25 | 50.46755 | 4.46721 | 590 ft | 2 kts | 20° |
| 2026-05-07 13:25 | 50.46740 | 4.46712 | 590 ft | 2 kts | 20° |
| 2026-05-07 13:25 | 50.46726 | 4.46703 | 591 ft | 2 kts | 20° |
| 2026-05-07 13:25 | 50.46710 | 4.46694 | 591 ft | 2 kts | 20° |
| 2026-05-07 13:26 | 50.46695 | 4.46685 | 592 ft | 2 kts | 20° |
| 2026-05-07 13:26 | 50.46680 | 4.46676 | 593 ft | 2 kts | 35° |
| 2026-05-07 13:26 | 50.46668 | 4.46660 | 593 ft | 2 kts | 61° |
| 2026-05-07 13:26 | 50.46662 | 4.46643 | 593 ft | 0 kts | 66° |
| 2026-05-07 13:28 | 50.46663 | 4.46646 | 593 ft | 2 kts | 66° |
| 2026-05-07 13:29 | 50.46679 | 4.46704 | 593 ft | 8 kts | 66° |
| 2026-05-07 13:29 | 50.46705 | 4.46797 | 593 ft | 11 kts | 66° |
| 2026-05-07 13:29 | 50.46741 | 4.46923 | 591 ft | 15 kts | 66° |
| 2026-05-07 13:29 | 50.46785 | 4.47076 | 591 ft | 13 kts | 65° |
| 2026-05-07 13:30 | 50.46827 | 4.47218 | 591 ft | 16 kts | 65° |
| 2026-05-07 13:30 | 50.46877 | 4.47390 | 590 ft | 19 kts | 65° |
| 2026-05-07 13:30 | 50.46912 | 4.47507 | 591 ft | 11 kts | 65° |
| 2026-05-07 13:30 | 50.46914 | 4.47599 | 592 ft | 6 kts | 129° |
| 2026-05-07 13:31 | 50.46878 | 4.47629 | 594 ft | 6 kts | 156° |
| 2026-05-07 13:31 | 50.46845 | 4.47652 | 596 ft | 4 kts | 156° |
| 2026-05-07 13:31 | 50.46820 | 4.47670 | 598 ft | 4 kts | 154° |
| 2026-05-07 13:31 | 50.46788 | 4.47696 | 599 ft | 8 kts | 152° |
| 2026-05-07 13:32 | 50.46718 | 4.47722 | 598 ft | 13 kts | 189° |
| 2026-05-07 13:32 | 50.46657 | 4.47599 | 598 ft | 26 kts | 242° |
| 2026-05-07 13:32 | 50.46472 | 4.46960 | 599 ft | 103 kts | 247° |
| 2026-05-07 13:32 | 50.46082 | 4.45616 | 643 ft | 162 kts | 246° |
| 2026-05-07 13:33 | 50.45590 | 4.43970 | 1305 ft | 173 kts | 244° |
| 2026-05-07 13:33 | 50.45032 | 4.42194 | 2050 ft | 191 kts | 244° |
| 2026-05-07 13:33 | 50.44469 | 4.40257 | 2807 ft | 185 kts | 245° |
| 2026-05-07 13:33 | 50.43960 | 4.38469 | 2929 ft | 174 kts | 245° |
| 2026-05-07 13:34 | 50.43473 | 4.36757 | 3074 ft | 174 kts | 245° |
| 2026-05-07 13:34 | 50.42484 | 4.33287 | 5139 ft | 170 kts | 245° |
| 2026-05-07 13:34 | 50.42009 | 4.31623 | 6280 ft | 165 kts | 245° |
| 2026-05-07 13:35 | 50.41551 | 4.30000 | 7265 ft | 165 kts | 245° |
| 2026-05-07 13:35 | 50.41238 | 4.28269 | 8200 ft | 168 kts | 269° |
| 2026-05-07 13:35 | 50.41352 | 4.26435 | 9146 ft | 170 kts | 281° |
| 2026-05-07 13:35 | 50.41720 | 4.24657 | 10071 ft | 174 kts | 296° |
| 2026-05-07 13:36 | 50.42371 | 4.23034 | 10897 ft | 177 kts | 304° |
| 2026-05-07 13:36 | 50.43197 | 4.21568 | 11580 ft | 181 kts | 313° |
| 2026-05-07 13:36 | 50.44114 | 4.20196 | 12071 ft | 183 kts | 315° |
| 2026-05-07 13:36 | 50.45125 | 4.18947 | 12572 ft | 189 kts | 327° |
| 2026-05-07 13:37 | 50.46337 | 4.17871 | 13118 ft | 212 kts | 330° |
| 2026-05-07 13:37 | 50.47716 | 4.16708 | 13673 ft | 238 kts | 330° |
| 2026-05-07 13:37 | 50.49286 | 4.15488 | 14164 ft | 265 kts | 339° |
| 2026-05-07 13:37 | 50.51190 | 4.15166 | 14660 ft | 289 kts | 6° |
| 2026-05-07 13:38 | 50.53173 | 4.16042 | 15147 ft | 306 kts | 20° |
| 2026-05-07 13:38 | 50.55164 | 4.17393 | 15628 ft | 325 kts | 27° |
| 2026-05-07 13:38 | 50.57110 | 4.19404 | 16130 ft | 344 kts | 37° |
| 2026-05-07 13:38 | 50.59031 | 4.21800 | 16638 ft | 360 kts | 38° |
| 2026-05-07 13:39 | 50.60985 | 4.24294 | 17143 ft | 363 kts | 38° |
| 2026-05-07 13:39 | 50.62949 | 4.26810 | 17630 ft | 366 kts | 38° |
| 2026-05-07 13:39 | 50.64908 | 4.29407 | 18154 ft | 369 kts | 43° |
| 2026-05-07 13:39 | 50.66476 | 4.32623 | 18632 ft | 373 kts | 62° |
| 2026-05-07 13:40 | 50.67344 | 4.36482 | 19068 ft | 376 kts | 78° |
| 2026-05-07 13:40 | 50.67883 | 4.40525 | 19283 ft | 378 kts | 77° |
| 2026-05-07 13:40 | 50.68589 | 4.44566 | 19685 ft | 386 kts | 72° |
| 2026-05-07 13:40 | 50.69469 | 4.48529 | 20525 ft | 387 kts | 69° |
| 2026-05-07 13:41 | 50.70461 | 4.52495 | 21390 ft | 390 kts | 68° |
| 2026-05-07 13:41 | 50.71371 | 4.56541 | 22143 ft | 394 kts | 76° |
| 2026-05-07 13:41 | 50.71683 | 4.60847 | 22789 ft | 397 kts | 92° |
| 2026-05-07 13:41 | 50.71224 | 4.65136 | 23050 ft | 394 kts | 107° |
| 2026-05-07 13:42 | 50.70436 | 4.69169 | 23064 ft | 376 kts | 109° |
| 2026-05-07 13:42 | 50.69640 | 4.73006 | 23061 ft | 361 kts | 109° |
| 2026-05-07 13:42 | 50.68877 | 4.76715 | 23065 ft | 352 kts | 109° |
| 2026-05-07 13:42 | 50.68130 | 4.80391 | 23066 ft | 352 kts | 109° |
| 2026-05-07 13:43 | 50.67387 | 4.84071 | 23064 ft | 351 kts | 109° |
| 2026-05-07 13:43 | 50.66592 | 4.87714 | 23063 ft | 351 kts | 114° |
| 2026-05-07 13:43 | 50.65399 | 4.91046 | 23065 ft | 348 kts | 129° |
| 2026-05-07 13:43 | 50.63798 | 4.93891 | 23065 ft | 347 kts | 136° |
| 2026-05-07 13:44 | 50.62090 | 4.96585 | 23067 ft | 347 kts | 137° |
| 2026-05-07 13:44 | 50.60375 | 4.99255 | 23067 ft | 347 kts | 137° |
| 2026-05-07 13:44 | 50.58661 | 5.01929 | 23067 ft | 347 kts | 137° |
| 2026-05-07 13:44 | 50.56950 | 5.04605 | 23064 ft | 347 kts | 137° |
| 2026-05-07 13:45 | 50.55241 | 5.07282 | 23063 ft | 347 kts | 137° |
| 2026-05-07 13:45 | 50.53548 | 5.09934 | 23058 ft | 347 kts | 137° |
| 2026-05-07 13:45 | 50.51839 | 5.12610 | 23063 ft | 347 kts | 136° |
| 2026-05-07 13:45 | 50.50129 | 5.15286 | 23063 ft | 347 kts | 136° |
| 2026-05-07 13:46 | 50.48411 | 5.17973 | 23061 ft | 347 kts | 136° |
| 2026-05-07 13:46 | 50.46691 | 5.20660 | 23062 ft | 347 kts | 136° |
| 2026-05-07 13:46 | 50.44979 | 5.23332 | 23062 ft | 347 kts | 136° |
| 2026-05-07 13:46 | 50.43265 | 5.26004 | 23062 ft | 349 kts | 136° |
| 2026-05-07 13:47 | 50.41508 | 5.28735 | 23069 ft | 373 kts | 136° |
| 2026-05-07 13:47 | 50.39616 | 5.31674 | 23067 ft | 388 kts | 136° |
| 2026-05-07 13:47 | 50.37692 | 5.34664 | 23060 ft | 389 kts | 136° |
| 2026-05-07 13:47 | 50.35769 | 5.37650 | 23058 ft | 389 kts | 136° |
| 2026-05-07 13:48 | 50.33843 | 5.40636 | 23059 ft | 389 kts | 136° |
| 2026-05-07 13:48 | 50.31916 | 5.43621 | 23058 ft | 389 kts | 136° |
| 2026-05-07 13:48 | 50.29991 | 5.46597 | 23058 ft | 389 kts | 136° |
| 2026-05-07 13:48 | 50.28058 | 5.49583 | 23056 ft | 389 kts | 137° |
| 2026-05-07 13:49 | 50.26130 | 5.52557 | 23056 ft | 389 kts | 137° |
| 2026-05-07 13:49 | 50.24226 | 5.55490 | 23056 ft | 389 kts | 137° |
| 2026-05-07 13:49 | 50.22295 | 5.58460 | 23055 ft | 389 kts | 137° |
| 2026-05-07 13:49 | 50.20365 | 5.61428 | 23056 ft | 390 kts | 137° |
| 2026-05-07 13:50 | 50.18431 | 5.64395 | 23053 ft | 389 kts | 137° |
| 2026-05-07 13:50 | 50.16498 | 5.67358 | 23054 ft | 389 kts | 137° |
| 2026-05-07 13:50 | 50.14559 | 5.70328 | 23052 ft | 389 kts | 137° |
| 2026-05-07 13:50 | 50.12624 | 5.73288 | 23053 ft | 389 kts | 137° |
| 2026-05-07 13:51 | 50.10688 | 5.76245 | 23050 ft | 389 kts | 137° |
| 2026-05-07 13:51 | 50.08753 | 5.79197 | 23050 ft | 389 kts | 137° |
| 2026-05-07 13:51 | 50.06818 | 5.82148 | 23049 ft | 389 kts | 137° |
| 2026-05-07 13:51 | 50.04892 | 5.85056 | 23045 ft | 389 kts | 138° |
| 2026-05-07 13:52 | 50.02940 | 5.87978 | 23041 ft | 390 kts | 138° |
| 2026-05-07 13:52 | 50.00980 | 5.90898 | 23043 ft | 390 kts | 138° |
| 2026-05-07 13:52 | 49.99024 | 5.93808 | 23046 ft | 390 kts | 138° |
| 2026-05-07 13:52 | 49.97066 | 5.96721 | 23044 ft | 390 kts | 138° |
| 2026-05-07 13:53 | 49.95106 | 5.99641 | 23045 ft | 390 kts | 138° |
| 2026-05-07 13:53 | 49.93146 | 6.02559 | 23041 ft | 390 kts | 138° |
| 2026-05-07 13:53 | 49.91186 | 6.05471 | 23040 ft | 390 kts | 138° |
| 2026-05-07 13:53 | 49.89226 | 6.08379 | 23043 ft | 390 kts | 138° |
| 2026-05-07 13:54 | 49.87279 | 6.11354 | 23042 ft | 400 kts | 134° |
| 2026-05-07 13:54 | 49.85587 | 6.14873 | 23047 ft | 424 kts | 124° |
| 2026-05-07 13:54 | 49.84047 | 6.18825 | 23039 ft | 430 kts | 121° |
| 2026-05-07 13:54 | 49.82614 | 6.22893 | 23041 ft | 430 kts | 119° |
| 2026-05-07 13:55 | 49.81239 | 6.27003 | 23041 ft | 430 kts | 118° |
| 2026-05-07 13:55 | 49.79876 | 6.31138 | 23043 ft | 430 kts | 118° |
| 2026-05-07 13:55 | 49.78511 | 6.35265 | 23040 ft | 430 kts | 118° |
| 2026-05-07 13:55 | 49.77134 | 6.39384 | 23043 ft | 430 kts | 118° |
| 2026-05-07 13:56 | 49.75748 | 6.43487 | 23039 ft | 430 kts | 118° |
| 2026-05-07 13:56 | 49.74351 | 6.47588 | 23039 ft | 430 kts | 118° |
| 2026-05-07 13:56 | 49.72950 | 6.51677 | 23038 ft | 430 kts | 119° |
| 2026-05-07 13:56 | 49.71549 | 6.55760 | 23035 ft | 430 kts | 119° |
| 2026-05-07 13:57 | 49.70143 | 6.59853 | 23025 ft | 430 kts | 119° |
| 2026-05-07 13:57 | 49.68742 | 6.63932 | 23031 ft | 430 kts | 119° |
| 2026-05-07 13:57 | 49.67339 | 6.68012 | 23026 ft | 430 kts | 119° |
| 2026-05-07 13:57 | 49.65933 | 6.72094 | 23027 ft | 430 kts | 119° |
| 2026-05-07 13:58 | 49.64544 | 6.76119 | 23032 ft | 430 kts | 119° |
| 2026-05-07 13:58 | 49.63136 | 6.80195 | 23031 ft | 430 kts | 118° |
| 2026-05-07 13:58 | 49.61727 | 6.84266 | 23037 ft | 430 kts | 118° |
| 2026-05-07 13:58 | 49.60320 | 6.88327 | 23032 ft | 430 kts | 118° |
| 2026-05-07 13:59 | 49.58911 | 6.92386 | 23031 ft | 430 kts | 118° |
| 2026-05-07 13:59 | 49.57498 | 6.96450 | 23032 ft | 430 kts | 118° |
| 2026-05-07 13:59 | 49.56085 | 7.00507 | 23032 ft | 430 kts | 118° |
| 2026-05-07 13:59 | 49.54669 | 7.04565 | 23035 ft | 430 kts | 118° |
| 2026-05-07 14:00 | 49.53253 | 7.08618 | 23036 ft | 430 kts | 119° |
| 2026-05-07 14:00 | 49.51834 | 7.12673 | 23042 ft | 430 kts | 119° |
| 2026-05-07 14:00 | 49.50413 | 7.16726 | 23041 ft | 431 kts | 119° |
| 2026-05-07 14:00 | 49.48985 | 7.20795 | 23048 ft | 431 kts | 119° |
| 2026-05-07 14:01 | 49.47556 | 7.24859 | 23040 ft | 432 kts | 119° |
| 2026-05-07 14:01 | 49.46139 | 7.28881 | 23039 ft | 433 kts | 119° |
| 2026-05-07 14:01 | 49.44705 | 7.32948 | 23039 ft | 433 kts | 119° |
| 2026-05-07 14:01 | 49.43270 | 7.37009 | 23049 ft | 433 kts | 119° |
| 2026-05-07 14:02 | 49.41830 | 7.41077 | 23044 ft | 433 kts | 119° |
| 2026-05-07 14:02 | 49.40389 | 7.45143 | 23041 ft | 433 kts | 119° |
| 2026-05-07 14:02 | 49.38949 | 7.49202 | 23040 ft | 433 kts | 119° |
| 2026-05-07 14:02 | 49.37508 | 7.53255 | 23052 ft | 433 kts | 119° |
| 2026-05-07 14:03 | 49.36065 | 7.57305 | 23041 ft | 433 kts | 120° |
| 2026-05-07 14:03 | 49.34638 | 7.61308 | 23043 ft | 433 kts | 120° |
| 2026-05-07 14:03 | 49.33187 | 7.65366 | 23046 ft | 433 kts | 120° |
| 2026-05-07 14:03 | 49.31736 | 7.69422 | 23044 ft | 434 kts | 120° |
| 2026-05-07 14:04 | 49.30284 | 7.73472 | 23044 ft | 434 kts | 120° |
| 2026-05-07 14:04 | 49.28830 | 7.77524 | 23044 ft | 434 kts | 120° |
| 2026-05-07 14:04 | 49.27373 | 7.81577 | 22901 ft | 433 kts | 120° |
| 2026-05-07 14:04 | 49.25920 | 7.85618 | 22620 ft | 434 kts | 120° |
| 2026-05-07 14:05 | 49.24459 | 7.89678 | 22331 ft | 436 kts | 120° |
| 2026-05-07 14:05 | 49.22989 | 7.93748 | 22065 ft | 437 kts | 120° |
| 2026-05-07 14:05 | 49.21515 | 7.97819 | 21788 ft | 438 kts | 120° |
| 2026-05-07 14:05 | 49.20037 | 8.01894 | 21516 ft | 439 kts | 120° |
| 2026-05-07 14:06 | 49.18553 | 8.05980 | 21268 ft | 440 kts | 120° |
| 2026-05-07 14:06 | 49.17067 | 8.10068 | 21002 ft | 441 kts | 120° |
| 2026-05-07 14:06 | 49.15575 | 8.14165 | 20753 ft | 441 kts | 120° |
| 2026-05-07 14:06 | 49.14097 | 8.18219 | 20493 ft | 442 kts | 120° |
| 2026-05-07 14:07 | 49.12602 | 8.22315 | 20245 ft | 442 kts | 120° |
| 2026-05-07 14:07 | 49.11100 | 8.26422 | 19992 ft | 443 kts | 120° |
| 2026-05-07 14:07 | 49.09597 | 8.30527 | 19737 ft | 443 kts | 120° |
| 2026-05-07 14:07 | 49.08093 | 8.34629 | 19502 ft | 443 kts | 120° |
| 2026-05-07 14:08 | 49.06585 | 8.38725 | 19254 ft | 442 kts | 120° |
| 2026-05-07 14:08 | 49.05078 | 8.42809 | 19012 ft | 441 kts | 121° |
| 2026-05-07 14:08 | 49.03575 | 8.46872 | 18771 ft | 439 kts | 121° |
| 2026-05-07 14:08 | 49.02046 | 8.50839 | 18547 ft | 426 kts | 125° |
| 2026-05-07 14:09 | 49.00217 | 8.54254 | 18308 ft | 408 kts | 137° |
| 2026-05-07 14:09 | 48.98035 | 8.56850 | 18040 ft | 390 kts | 152° |
| 2026-05-07 14:09 | 48.95611 | 8.58477 | 17777 ft | 373 kts | 166° |
| 2026-05-07 14:09 | 48.93142 | 8.59163 | 17502 ft | 361 kts | 177° |
| 2026-05-07 14:10 | 48.90650 | 8.59489 | 17234 ft | 359 kts | 178° |
| 2026-05-07 14:10 | 48.88157 | 8.59770 | 16976 ft | 358 kts | 178° |
| 2026-05-07 14:10 | 48.85675 | 8.60052 | 16711 ft | 357 kts | 178° |
| 2026-05-07 14:10 | 48.83199 | 8.60337 | 16447 ft | 356 kts | 178° |
| 2026-05-07 14:11 | 48.80739 | 8.60675 | 16176 ft | 355 kts | 173° |
| 2026-05-07 14:11 | 48.78383 | 8.61872 | 15943 ft | 357 kts | 158° |
| 2026-05-07 14:11 | 48.76099 | 8.63350 | 15687 ft | 356 kts | 159° |
| 2026-05-07 14:11 | 48.73808 | 8.64768 | 15412 ft | 354 kts | 160° |
| 2026-05-07 14:12 | 48.71556 | 8.66233 | 15171 ft | 353 kts | 154° |
| 2026-05-07 14:12 | 48.69575 | 8.68341 | 14926 ft | 354 kts | 138° |
| 2026-05-07 14:12 | 48.68074 | 8.71287 | 14682 ft | 355 kts | 119° |
| 2026-05-07 14:12 | 48.67245 | 8.74799 | 14437 ft | 357 kts | 101° |
| 2026-05-07 14:13 | 48.67174 | 8.78541 | 14192 ft | 357 kts | 82° |
| 2026-05-07 14:13 | 48.67869 | 8.82119 | 13956 ft | 355 kts | 63° |
| 2026-05-07 14:13 | 48.69231 | 8.85199 | 13703 ft | 351 kts | 48° |
| 2026-05-07 14:13 | 48.70708 | 8.88142 | 13427 ft | 352 kts | 57° |
| 2026-05-07 14:14 | 48.71703 | 8.91520 | 13159 ft | 351 kts | 71° |
| 2026-05-07 14:14 | 48.72418 | 8.95046 | 12887 ft | 350 kts | 73° |
| 2026-05-07 14:14 | 48.73094 | 8.98594 | 12639 ft | 349 kts | 73° |
| 2026-05-07 14:14 | 48.73762 | 9.02111 | 12391 ft | 346 kts | 73° |
| 2026-05-07 14:15 | 48.74418 | 9.05564 | 12126 ft | 345 kts | 73° |
| 2026-05-07 14:15 | 48.75082 | 9.09056 | 11861 ft | 344 kts | 73° |
| 2026-05-07 14:15 | 48.75742 | 9.12530 | 11612 ft | 342 kts | 73° |
| 2026-05-07 14:15 | 48.76399 | 9.15993 | 11354 ft | 342 kts | 73° |
| 2026-05-07 14:16 | 48.77059 | 9.19473 | 11101 ft | 341 kts | 73° |
| 2026-05-07 14:16 | 48.77710 | 9.22918 | 10848 ft | 340 kts | 73° |
| 2026-05-07 14:16 | 48.78360 | 9.26361 | 10606 ft | 339 kts | 73° |
| 2026-05-07 14:16 | 48.78999 | 9.29752 | 10371 ft | 338 kts | 73° |
| 2026-05-07 14:17 | 48.79646 | 9.33193 | 10119 ft | 337 kts | 73° |
| 2026-05-07 14:17 | 48.80286 | 9.36603 | 10030 ft | 337 kts | 73° |
| 2026-05-07 14:17 | 48.80927 | 9.40023 | 10021 ft | 336 kts | 73° |
| 2026-05-07 14:17 | 48.81565 | 9.43410 | 9919 ft | 326 kts | 73° |
| 2026-05-07 14:18 | 48.81969 | 9.45581 | 9794 ft | 318 kts | 74° |
| 2026-05-07 14:18 | 48.82558 | 9.48761 | 9583 ft | 309 kts | 74° |
| 2026-05-07 14:18 | 48.83133 | 9.51865 | 9309 ft | 302 kts | 74° |
| 2026-05-07 14:18 | 48.83694 | 9.54898 | 9039 ft | 296 kts | 74° |
| 2026-05-07 14:19 | 48.84252 | 9.57912 | 8802 ft | 297 kts | 74° |
| 2026-05-07 14:19 | 48.84807 | 9.60919 | 8569 ft | 294 kts | 74° |
| 2026-05-07 14:19 | 48.85360 | 9.63913 | 8311 ft | 294 kts | 74° |
| 2026-05-07 14:19 | 48.85907 | 9.66883 | 8072 ft | 291 kts | 73° |
| 2026-05-07 14:20 | 48.86454 | 9.69858 | 8000 ft | 293 kts | 73° |
| 2026-05-07 14:20 | 48.87003 | 9.72852 | 8005 ft | 294 kts | 73° |
| 2026-05-07 14:20 | 48.87546 | 9.75810 | 8006 ft | 294 kts | 73° |
| 2026-05-07 14:20 | 48.88091 | 9.78804 | 8003 ft | 294 kts | 74° |
| 2026-05-07 14:21 | 48.88362 | 9.81879 | 8006 ft | 295 kts | 93° |
| 2026-05-07 14:21 | 48.87832 | 9.84844 | 8006 ft | 292 kts | 120° |
| 2026-05-07 14:21 | 48.86521 | 9.87131 | 8006 ft | 287 kts | 147° |
| 2026-05-07 14:21 | 48.84729 | 9.88337 | 8002 ft | 281 kts | 172° |
| 2026-05-07 14:22 | 48.82144 | 9.88859 | 7997 ft | 280 kts | 177° |
| 2026-05-07 14:22 | 48.80857 | 9.88862 | 7996 ft | 278 kts | 189° |
| 2026-05-07 14:22 | 48.79065 | 9.87951 | 7893 ft | 270 kts | 214° |
| 2026-05-07 14:22 | 48.77735 | 9.86012 | 7666 ft | 265 kts | 238° |
| 2026-05-07 14:23 | 48.77081 | 9.83452 | 7420 ft | 261 kts | 262° |
| 2026-05-07 14:23 | 48.77173 | 9.80715 | 7164 ft | 262 kts | 284° |
| 2026-05-07 14:23 | 48.77764 | 9.78133 | 6923 ft | 257 kts | 290° |
| 2026-05-07 14:23 | 48.78350 | 9.75597 | 6707 ft | 259 kts | 282° |
| 2026-05-07 14:24 | 48.78423 | 9.72904 | 6473 ft | 255 kts | 262° |
| 2026-05-07 14:24 | 48.78020 | 9.70266 | 6259 ft | 257 kts | 255° |
| 2026-05-07 14:24 | 48.77528 | 9.67651 | 6082 ft | 256 kts | 255° |
| 2026-05-07 14:24 | 48.77069 | 9.65055 | 5703 ft | 255 kts | 257° |
| 2026-05-07 14:25 | 48.76618 | 9.62455 | 5352 ft | 252 kts | 256° |
| 2026-05-07 14:25 | 48.76155 | 9.59945 | 5179 ft | 243 kts | 255° |
| 2026-05-07 14:25 | 48.75695 | 9.57533 | 5031 ft | 233 kts | 255° |
| 2026-05-07 14:25 | 48.75246 | 9.55225 | 4976 ft | 222 kts | 255° |
| 2026-05-07 14:26 | 48.74814 | 9.53027 | 4914 ft | 213 kts | 255° |
| 2026-05-07 14:26 | 48.74404 | 9.50907 | 4780 ft | 206 kts | 255° |
| 2026-05-07 14:26 | 48.74014 | 9.48823 | 4547 ft | 206 kts | 256° |
| 2026-05-07 14:26 | 48.73631 | 9.46753 | 4259 ft | 208 kts | 256° |
| 2026-05-07 14:27 | 48.73231 | 9.44636 | 3949 ft | 210 kts | 255° |
| 2026-05-07 14:27 | 48.72827 | 9.42503 | 3665 ft | 210 kts | 256° |
| 2026-05-07 14:27 | 48.72434 | 9.40424 | 3405 ft | 201 kts | 256° |
| 2026-05-07 14:27 | 48.72060 | 9.38456 | 3107 ft | 186 kts | 257° |
| 2026-05-07 14:28 | 48.71722 | 9.36670 | 2871 ft | 168 kts | 257° |
| 2026-05-07 14:28 | 48.71414 | 9.35036 | 2657 ft | 156 kts | 256° |
| 2026-05-07 14:28 | 48.71124 | 9.33503 | 2445 ft | 147 kts | 256° |
| 2026-05-07 14:28 | 48.70857 | 9.32098 | 2266 ft | 132 kts | 259° |
| 2026-05-07 14:29 | 48.70615 | 9.30817 | 2080 ft | 122 kts | 259° |
| 2026-05-07 14:29 | 48.70385 | 9.29589 | 1906 ft | 121 kts | 258° |
| 2026-05-07 14:29 | 48.70156 | 9.28374 | 1749 ft | 122 kts | 258° |
| 2026-05-07 14:29 | 48.69925 | 9.27150 | 1642 ft | 120 kts | 257° |
| 2026-05-07 14:30 | 48.69679 | 9.25947 | 1497 ft | 119 kts | 259° |
| 2026-05-07 14:30 | 48.69465 | 9.24739 | 1402 ft | 119 kts | 258° |
| 2026-05-07 14:30 | 48.69239 | 9.23546 | 1293 ft | 114 kts | 258° |
| 2026-05-07 14:30 | 48.69071 | 9.22616 | 1290 ft | 72 kts | 254° |
| 2026-05-07 14:31 | 48.68947 | 9.21969 | 1290 ft | 57 kts | 253° |
| 2026-05-07 14:31 | 48.68849 | 9.21462 | 1290 ft | 39 kts | 253° |
| 2026-05-07 14:31 | 48.68817 | 9.21112 | 1290 ft | 29 kts | 275° |
| 2026-05-07 14:31 | 48.68850 | 9.20886 | 1290 ft | 13 kts | 285° |
| 2026-05-07 14:32 | 48.68861 | 9.20824 | 1290 ft | 1 kts | 285° |
| 2026-05-07 14:32 | 48.68865 | 9.20805 | 1290 ft | 0 kts | 285° |
| 2026-05-07 14:32 | 48.68868 | 9.20785 | 1290 ft | 4 kts | 285° |
| 2026-05-07 14:32 | 48.68877 | 9.20735 | 1290 ft | 6 kts | 285° |
| 2026-05-07 14:33 | 48.68874 | 9.20659 | 1290 ft | 8 kts | 257° |
| 2026-05-07 14:33 | 48.68855 | 9.20560 | 1290 ft | 11 kts | 252° |
| 2026-05-07 14:33 | 48.68832 | 9.20448 | 1290 ft | 9 kts | 254° |
| 2026-05-07 14:33 | 48.68829 | 9.20432 | 1290 ft | 2 kts | 254° |
| 2026-05-07 14:34 | 48.68821 | 9.20389 | 1290 ft | 7 kts | 255° |
| 2026-05-07 14:34 | 48.68801 | 9.20276 | 1290 ft | 15 kts | 254° |
| 2026-05-07 14:34 | 48.68767 | 9.20091 | 1290 ft | 17 kts | 256° |
| 2026-05-07 14:34 | 48.68782 | 9.19977 | 1290 ft | 4 kts | 336° |
| 2026-05-07 14:35 | 48.68823 | 9.20000 | 1290 ft | 11 kts | 43° |
| 2026-05-07 14:35 | 48.68862 | 9.20158 | 1290 ft | 19 kts | 72° |
| 2026-05-07 14:35 | 48.68898 | 9.20355 | 1290 ft | 19 kts | 75° |
| 2026-05-07 14:35 | 48.68935 | 9.20544 | 1290 ft | 11 kts | 73° |
| 2026-05-07 14:36 | 48.68941 | 9.20577 | 1290 ft | 1 kts | 72° |
| 2026-05-07 14:36 | 48.68948 | 9.20611 | 1290 ft | 5 kts | 72° |
| 2026-05-07 14:36 | 48.68963 | 9.20687 | 1290 ft | 9 kts | 75° |
| 2026-05-07 14:36 | 48.68980 | 9.20778 | 1290 ft | 0 kts | 73° |
| 2026-05-07 14:37 | 48.68981 | 9.20783 | 1290 ft | 2 kts | 73° |
| 2026-05-07 14:37 | 48.68983 | 9.20794 | 1290 ft | 1 kts | 73° |
| 2026-05-07 14:37 | 48.68989 | 9.20824 | 1290 ft | 5 kts | 73° |
| 2026-05-07 14:38 | 48.69002 | 9.20895 | 1290 ft | 9 kts | 74° |
| 2026-05-07 14:38 | 48.69023 | 9.21005 | 1290 ft | 13 kts | 74° |
| 2026-05-07 14:38 | 48.69050 | 9.21151 | 1290 ft | 16 kts | 74° |
| 2026-05-07 14:38 | 48.69082 | 9.21324 | 1290 ft | 17 kts | 76° |
| 2026-05-07 14:39 | 48.69036 | 9.21412 | 1290 ft | 8 kts | 181° |
| 2026-05-07 14:39 | 48.69008 | 9.21371 | 1290 ft | 10 kts | 244° |
| 2026-05-07 14:39 | 48.68976 | 9.21217 | 1290 ft | 12 kts | 253° |
| 2026-05-07 14:39 | 48.68961 | 9.21133 | 1290 ft | 10 kts | 256° |
| 2026-05-07 14:40 | 48.68941 | 9.21018 | 1290 ft | 13 kts | 254° |
| 2026-05-07 14:40 | 48.68913 | 9.20873 | 1290 ft | 16 kts | 254° |
| 2026-05-07 14:40 | 48.68915 | 9.20707 | 1290 ft | 17 kts | 303° |
| 2026-05-07 14:40 | 48.69002 | 9.20568 | 1290 ft | 19 kts | 315° |
| 2026-05-07 14:41 | 48.69054 | 9.20416 | 1290 ft | 14 kts | 251° |
| 2026-05-07 14:41 | 48.69035 | 9.20300 | 1290 ft | 5 kts | 265° |
| 2026-05-07 14:41 | 48.69052 | 9.20273 | 1290 ft | 6 kts | 341° |
| 2026-05-07 14:41 | 48.69109 | 9.20248 | 1290 ft | 1 kts | 344° |